createdAt,value
2018-07-25T00:01:02.986Z,101826.07
2018-07-25T00:03:35.029Z,101821.52
2018-07-25T00:06:08.503Z,101829.53
2018-07-25T00:08:37.390Z,101830.95
2018-07-25T00:11:06.131Z,101833.28
2018-07-25T00:13:34.965Z,101831.61
2018-07-25T00:16:04.006Z,101836.87
2018-07-25T00:18:35.474Z,101833.39
2018-07-25T00:21:08.648Z,101829.15
2018-07-25T00:23:39.880Z,101835.92
2018-07-25T00:26:08.917Z,101837.13
2018-07-25T00:28:37.806Z,101836.56
2018-07-25T00:31:06.592Z,101832.97
2018-07-25T00:33:35.578Z,101838.42
2018-07-25T00:36:11.784Z,101832.01
2018-07-25T00:38:43.956Z,101837.09
2018-07-25T00:41:15.547Z,101841.05
2018-07-25T00:43:44.371Z,101836.34
2018-07-25T00:46:13.159Z,101837.77
2018-07-25T00:48:41.971Z,101839.55
2018-07-25T00:51:11.170Z,101838.70
2018-07-25T00:53:44.905Z,101845.17
2018-07-25T00:56:15.551Z,101840.48
2018-07-25T00:58:48.136Z,101840.19
2018-07-25T01:01:17.083Z,101845.07
2018-07-25T01:03:45.926Z,101841.97
2018-07-25T01:06:14.834Z,101842.44
2018-07-25T01:08:43.950Z,101842.14
2018-07-25T01:11:19.836Z,101845.45
2018-07-25T01:13:51.840Z,101843.67
2018-07-25T01:16:27.787Z,101846.48
2018-07-25T01:18:56.628Z,101844.95
2018-07-25T01:21:25.523Z,101836.30
2018-07-25T01:23:54.497Z,101838.72
2018-07-25T01:26:25.266Z,101837.89
2018-07-25T01:28:56.500Z,101838.06
2018-07-25T01:31:28.879Z,101840.48
2018-07-25T01:34:00.411Z,101843.58
2018-07-25T01:36:29.261Z,101840.59
2018-07-25T01:38:58.109Z,101840.93
2018-07-25T01:41:27.006Z,101846.19
2018-07-25T01:43:59.622Z,101856.90
2018-07-25T01:46:31.942Z,101852.55
2018-07-25T01:49:04.503Z,101844.37
2018-07-25T01:51:36.290Z,101848.02
2018-07-25T01:54:05.169Z,101857.70
2018-07-25T01:56:34.987Z,101851.12
2018-07-25T01:59:03.930Z,101844.81
2018-07-25T02:01:36.807Z,101846.08
2018-07-25T02:04:07.763Z,101852.02
2018-07-25T02:06:39.686Z,101848.44
2018-07-25T02:09:12.468Z,101847.52
2018-07-25T02:11:41.399Z,101845.17
2018-07-25T02:14:10.409Z,101844.61
2018-07-25T02:16:39.440Z,101848.84
2018-07-25T02:19:11.729Z,101845.67
2018-07-25T02:21:44.323Z,101844.65
2018-07-25T02:24:15.437Z,101853.30
2018-07-25T02:26:47.195Z,101854.61
2018-07-25T02:29:16.110Z,101848.20
2018-07-25T02:31:45.058Z,101855.64
2018-07-25T02:34:19.181Z,101862.34
2018-07-25T02:36:52.498Z,101861.02
2018-07-25T02:39:23.305Z,101868.36
2018-07-25T02:41:59.549Z,101874.02
2018-07-25T02:44:28.435Z,101862.06
2018-07-25T02:46:57.357Z,101860.68
2018-07-25T02:49:26.196Z,101851.46
2018-07-25T02:51:55.617Z,101854.56
2018-07-25T02:54:28.710Z,101854.73
2018-07-25T02:57:00.416Z,101855.66
2018-07-25T02:59:32.806Z,101853.41
2018-07-25T03:02:01.753Z,101852.45
2018-07-25T03:04:30.606Z,101849.83
2018-07-25T03:06:59.432Z,101853.41
2018-07-25T03:09:28.639Z,101864.41
2018-07-25T03:11:58.949Z,101867.90
2018-07-25T03:14:30.890Z,101868.07
2018-07-25T03:17:02.803Z,101870.70
2018-07-25T03:19:31.799Z,101869.00
2018-07-25T03:22:00.693Z,101874.19
2018-07-25T03:24:29.606Z,101874.27
2018-07-25T03:26:58.852Z,101878.60
2018-07-25T03:29:31.893Z,101877.68
2018-07-25T03:32:06.911Z,101878.44
2018-07-25T03:34:40.822Z,101875.70
2018-07-25T03:37:09.738Z,101878.44
2018-07-25T03:39:38.866Z,101884.55
2018-07-25T03:42:07.826Z,101874.48
2018-07-25T03:44:38.241Z,101877.47
2018-07-25T03:47:13.074Z,101879.19
2018-07-25T03:49:51.976Z,101877.19
2018-07-25T03:52:28.012Z,101881.53
2018-07-25T03:54:56.826Z,101885.88
2018-07-25T03:57:25.642Z,101882.84
2018-07-25T03:59:54.501Z,101877.68
2018-07-25T04:02:29.021Z,101883.30
2018-07-25T04:05:00.981Z,101882.38
2018-07-25T04:07:32.700Z,101880.67
2018-07-25T04:10:04.662Z,101879.92
2018-07-25T04:12:33.627Z,101881.80
2018-07-25T04:15:02.422Z,101884.04
2018-07-25T04:17:36.411Z,101880.66
2018-07-25T04:20:14.914Z,101887.14
2018-07-25T04:22:48.466Z,101888.16
2018-07-25T04:25:23.072Z,101882.22
2018-07-25T04:27:53.681Z,101885.23
2018-07-25T04:30:23.332Z,101885.41
2018-07-25T04:32:52.194Z,101882.13
2018-07-25T04:35:21.194Z,101893.41
2018-07-25T04:37:52.958Z,101891.80
2018-07-25T04:40:24.243Z,101899.59
2018-07-25T04:42:56.446Z,101902.40
2018-07-25T04:45:25.404Z,101907.30
2018-07-25T04:47:54.174Z,101904.84
2018-07-25T04:50:23.066Z,101899.28
2018-07-25T04:52:52.273Z,101904.25
2018-07-25T04:55:29.124Z,101900.84
2018-07-25T04:58:13.084Z,101903.11
2018-07-25T05:00:54.979Z,101916.33
2018-07-25T05:03:23.843Z,101916.40
2018-07-25T05:05:52.666Z,101914.39
2018-07-25T05:08:21.574Z,101918.97
2018-07-25T05:10:55.612Z,101918.31
2018-07-25T05:13:28.079Z,101921.47
2018-07-25T05:16:03.799Z,101923.64
2018-07-25T05:18:36.492Z,101926.83
2018-07-25T05:21:05.376Z,101932.09
2018-07-25T05:23:34.259Z,101919.56
2018-07-25T05:26:03.324Z,101927.39
2018-07-25T05:28:36.951Z,101931.33
2018-07-25T05:31:07.804Z,101927.95
2018-07-25T05:33:39.951Z,101932.09
2018-07-25T05:36:12.904Z,101930.22
2018-07-25T05:38:41.846Z,101929.75
2018-07-25T05:41:10.718Z,101924.95
2018-07-25T05:43:39.672Z,101926.27
2018-07-25T05:46:13.104Z,101936.34
2018-07-25T05:48:44.479Z,101935.88
2018-07-25T05:51:16.497Z,101941.04
2018-07-25T05:53:46.755Z,101937.39
2018-07-25T05:56:15.679Z,101942.48
2018-07-25T05:58:44.623Z,101941.47
2018-07-25T06:01:13.690Z,101945.71
2018-07-25T06:03:46.866Z,101948.60
2018-07-25T06:06:19.973Z,101947.98
2018-07-25T06:08:52.102Z,101950.05
2018-07-25T06:11:20.995Z,101948.63
2018-07-25T06:13:49.844Z,101944.33
2018-07-25T06:16:19.229Z,101951.89
2018-07-25T06:18:48.799Z,101947.67
2018-07-25T06:21:27.077Z,101933.55
2018-07-25T06:24:03.004Z,101947.53
2018-07-25T06:26:37.035Z,101947.27
2018-07-25T06:29:05.858Z,101952.00
2018-07-25T06:31:34.743Z,101953.61
2018-07-25T06:34:03.520Z,101956.07
2018-07-25T06:36:32.943Z,101948.75
2018-07-25T06:39:05.440Z,101952.82
2018-07-25T06:41:40.116Z,101957.91
2018-07-25T06:47:00.119Z,101957.93
2018-07-25T06:49:28.997Z,101966.24
2018-07-25T06:51:57.955Z,101966.36
2018-07-25T06:54:32.216Z,101970.33
2018-07-25T06:57:11.070Z,101961.49
2018-07-25T06:59:47.071Z,101968.20
2018-07-25T07:02:24.089Z,101963.06
2018-07-25T07:04:53.065Z,101967.06
2018-07-25T07:07:22.105Z,101964.81
2018-07-25T07:09:51.001Z,101971.33
2018-07-25T07:12:39.949Z,101970.58
2018-07-25T07:18:12.578Z,101967.18
2018-07-25T07:20:41.735Z,101972.95
2018-07-25T07:23:11.698Z,101971.15
2018-07-25T07:25:40.672Z,101987.00
2018-07-25T07:28:10.243Z,101980.50
2018-07-25T07:39:48.443Z,101988.11
2018-07-25T07:42:17.374Z,101994.98
2018-07-25T07:44:46.518Z,101987.73
2018-07-25T07:47:16.909Z,101989.61
2018-07-25T07:49:51.993Z,101987.95
2018-07-25T07:52:23.508Z,101982.37
2018-07-25T07:54:52.381Z,101989.17
2018-07-25T07:57:21.187Z,101988.01
2018-07-25T07:59:50.094Z,101991.98
2018-07-25T08:02:19.097Z,101988.18
2018-07-25T08:05:03.215Z,101991.48
2018-07-25T08:07:40.705Z,101995.14
2018-07-25T08:10:35.429Z,101990.41
2018-07-25T08:13:04.168Z,101994.45
2018-07-25T08:15:33.068Z,101987.56
2018-07-25T08:18:01.979Z,101988.58
2018-07-25T08:20:31.111Z,101987.33
2018-07-25T08:23:03.604Z,101988.34
2018-07-25T08:35:35.463Z,101985.62
2018-07-25T09:27:06.297Z,101969.20
2018-07-25T09:29:49.236Z,101961.80
2018-07-25T09:44:44.888Z,101943.27
2018-07-25T10:00:55.739Z,101950.72
2018-07-25T10:03:25.504Z,101946.36
2018-07-25T10:18:05.624Z,101938.41
2018-07-25T10:20:35.071Z,101931.69
2018-07-25T10:35:16.618Z,101930.77
2018-07-25T10:37:47.581Z,101943.20
2018-07-25T10:52:34.356Z,101928.91
2018-07-25T10:55:13.304Z,101932.67
2018-07-25T10:57:47.035Z,101927.00
2018-07-25T11:09:16.406Z,101923.20
2018-07-25T11:11:45.366Z,101926.33
2018-07-25T11:14:14.557Z,101921.02
2018-07-25T11:17:00.345Z,101930.31
2018-07-25T11:25:24.615Z,101913.27
2018-07-25T11:27:59.112Z,101917.35
2018-07-25T11:30:28.647Z,101923.51
2018-07-25T11:33:00.305Z,101916.14
2018-07-25T11:44:45.529Z,101916.38
2018-07-25T11:47:19.107Z,101921.20
2018-07-25T12:01:39.938Z,101925.05
2018-07-25T12:04:15.517Z,101922.51
2018-07-25T12:19:00.859Z,101923.90
2018-07-25T12:21:30.639Z,101919.09
2018-07-25T12:24:00.487Z,101932.56
2018-07-25T12:35:38.491Z,101924.29
2018-07-25T12:38:07.927Z,101915.63
2018-07-25T12:40:37.298Z,101914.34
2018-07-25T12:52:14.854Z,101927.98
2018-07-25T12:54:44.018Z,101925.12
2018-07-25T12:57:13.226Z,101924.73
2018-07-25T13:08:50.262Z,101919.09
2018-07-25T13:11:19.237Z,101931.32
2018-07-25T13:13:48.414Z,101928.02
2018-07-25T13:16:18.919Z,101928.02
2018-07-25T13:27:55.418Z,101923.52
2018-07-25T13:30:24.350Z,101923.52
2018-07-25T13:32:53.648Z,101927.31
2018-07-25T13:44:37.659Z,101914.36
2018-07-25T13:47:19.838Z,101912.25
2018-07-25T13:49:49.284Z,101917.59
2018-07-25T14:01:27.067Z,101908.37
2018-07-25T14:03:56.566Z,101901.78
2018-07-25T14:06:25.846Z,101899.19
2018-07-25T14:21:04.504Z,101885.36
2018-07-25T14:23:33.875Z,101887.93
2018-07-25T14:37:56.238Z,101876.95
2018-07-25T14:40:25.853Z,101880.76
2018-07-25T14:42:55.990Z,101878.73
2018-07-25T14:54:32.731Z,101867.33
2018-07-25T14:57:02.787Z,101871.17
2018-07-25T14:59:32.482Z,101872.87
2018-07-25T15:11:09.294Z,101864.16
2018-07-25T15:13:38.428Z,101856.65
2018-07-25T15:16:07.574Z,101860.86
2018-07-25T15:30:48.040Z,101849.89
2018-07-25T15:33:21.171Z,101847.61
2018-07-25T15:35:50.327Z,101848.34
2018-07-25T15:47:31.111Z,101841.48
2018-07-25T15:50:01.526Z,101842.51
2018-07-25T15:52:31.577Z,101836.69
2018-07-25T15:55:01.147Z,101834.02
2018-07-25T16:06:39.803Z,101831.33
2018-07-25T16:09:10.610Z,101820.19
2018-07-25T16:11:40.435Z,101822.97
2018-07-25T16:23:40.289Z,101819.05
2018-07-25T16:26:09.298Z,101812.55
2018-07-25T16:28:38.426Z,101809.23
2018-07-25T16:31:08.683Z,101813.27
2018-07-25T16:42:49.172Z,101806.85
2018-07-25T16:45:18.119Z,101802.11
2018-07-25T16:47:47.266Z,101804.07
2018-07-25T16:50:17.190Z,101796.69
2018-07-25T17:01:55.714Z,101782.62
2018-07-25T17:04:24.654Z,101775.91
2018-07-25T17:06:58.913Z,101768.90
2018-07-25T17:24:30.839Z,101770.59
2018-07-25T17:26:59.946Z,101766.13
2018-07-25T17:29:29.157Z,101772.52
2018-07-25T17:41:07.225Z,101751.92
2018-07-25T17:43:36.591Z,101747.34
2018-07-25T17:46:05.615Z,101751.38
2018-07-25T17:48:34.828Z,101745.64
2018-07-25T18:03:16.116Z,101742.08
2018-07-25T18:05:45.098Z,101736.91
2018-07-25T18:08:14.135Z,101736.34
2018-07-25T18:25:57.799Z,101739.16
2018-07-25T18:28:26.812Z,101738.55
2018-07-25T18:30:55.868Z,101740.89
2018-07-25T18:45:26.293Z,101745.50
2018-07-25T18:47:55.330Z,101738.12
2018-07-25T18:50:25.206Z,101741.80
2018-07-25T19:08:08.778Z,101729.41
2018-07-25T19:10:37.742Z,101731.91
2018-07-25T19:13:12.132Z,101734.69
2018-07-25T19:30:43.831Z,101739.47
2018-07-25T19:33:13.445Z,101739.70
2018-07-25T19:47:43.390Z,101739.88
2018-07-25T19:50:12.303Z,101738.87
2018-07-25T19:52:41.284Z,101740.70
2018-07-25T20:04:17.551Z,101745.16
2018-07-25T20:06:46.470Z,101738.40
2018-07-25T20:09:15.391Z,101744.98
2018-07-25T20:20:55.162Z,101746.60
2018-07-25T20:23:24.105Z,101745.78
2018-07-25T20:25:53.077Z,101741.45
2018-07-25T20:28:22.189Z,101745.55
2018-07-25T20:39:59.292Z,101760.30
2018-07-25T20:42:28.647Z,101755.36
2018-07-25T20:44:57.967Z,101760.75
2018-07-25T20:56:34.703Z,101761.88
2018-07-25T20:59:03.724Z,101766.80
2018-07-25T21:01:32.691Z,101762.65
2018-07-25T21:04:08.371Z,101763.95
2018-07-25T21:09:51.366Z,101759.58
2018-07-25T21:12:40.248Z,101754.77
2018-07-25T21:15:09.478Z,101761.67
2018-07-25T21:17:38.438Z,101762.81
2018-07-25T21:20:07.429Z,101769.19
2018-07-25T21:22:36.470Z,101765.44
2018-07-25T21:25:24.722Z,101764.42
2018-07-25T21:28:00.482Z,101765.45
2018-07-25T21:30:37.163Z,101766.52
2018-07-25T21:33:17.049Z,101765.05
2018-07-25T21:35:45.937Z,101757.45
2018-07-25T21:38:14.867Z,101758.39
2018-07-25T21:40:43.805Z,101754.55
2018-07-25T21:43:20.437Z,101752.47
2018-07-25T21:45:56.223Z,101757.88
2018-07-25T21:48:29.569Z,101752.80
2018-07-25T21:51:07.880Z,101749.05
2018-07-25T21:53:44.691Z,101751.91
2018-07-25T21:56:13.597Z,101746.75
2018-07-25T21:58:42.521Z,101748.66
2018-07-25T22:01:17.660Z,101743.94
2018-07-25T22:03:51.555Z,101745.86
2018-07-25T22:06:25.552Z,101740.31
2018-07-25T22:09:00.387Z,101737.88
2018-07-25T22:11:39.477Z,101742.66
2018-07-25T22:14:15.483Z,101739.84
2018-07-25T22:16:44.346Z,101740.30
2018-07-25T22:19:13.202Z,101731.65
2018-07-25T22:21:42.166Z,101732.08
2018-07-25T22:24:15.480Z,101733.47
2018-07-25T22:29:28.572Z,101735.41
2018-07-25T22:32:07.418Z,101732.72
2018-07-25T22:34:40.069Z,101734.19
2018-07-25T22:37:09.134Z,101734.93
2018-07-25T22:39:38.191Z,101730.70
2018-07-25T22:42:08.646Z,101734.52
2018-07-25T22:47:23.214Z,101732.49
2018-07-25T22:50:00.970Z,101732.70
2018-07-25T22:52:36.355Z,101730.31
2018-07-25T22:55:17.182Z,101736.11
2018-07-25T22:57:46.279Z,101725.19
2018-07-25T23:00:15.122Z,101724.53
2018-07-25T23:02:44.143Z,101718.06
2018-07-25T23:05:20.288Z,101718.73
2018-07-25T23:07:59.685Z,101716.20
2018-07-25T23:10:32.698Z,101706.52
2018-07-25T23:13:08.550Z,101702.91
2018-07-25T23:15:43.280Z,101697.91
2018-07-25T23:18:20.373Z,101696.78
2018-07-25T23:20:50.488Z,101697.37
2018-07-25T23:23:20.050Z,101701.05
2018-07-25T23:25:49.095Z,101698.61
2018-07-25T23:28:24.445Z,101696.09
2018-07-25T23:31:04.167Z,101690.43
2018-07-25T23:33:36.233Z,101690.63
2018-07-25T23:36:12.346Z,101690.81
2018-07-25T23:38:47.686Z,101686.31
2018-07-25T23:41:16.530Z,101686.89
2018-07-25T23:43:45.317Z,101691.23
2018-07-25T23:46:15.026Z,101688.59
2018-07-25T23:48:45.600Z,101683.33
2018-07-25T23:51:17.050Z,101688.88
2018-07-25T23:53:48.392Z,101682.75
2018-07-25T23:56:32.962Z,101681.70
2018-07-25T23:59:01.971Z,101680.11
